Time;durP1;ratioP1;P1;durP2;ratioP2;P2;SDS_P1;SDS_P2;PMS_P1;PMS_P2;Temp;Humidity;BMP_temperature;BMP_pressure;BME280_temperature;BME280_humidity;BME280_pressure;Samples;Min_cycle;Max_cycle;Signal;HPM_P1;HPM_P2
2023/01/26 00:02:03;;;;;;;77.65;21.95;;;;;;;;;;6147040;23;20063;-75
2023/01/26 00:04:29;;;;;;;73.00;21.10;;;;;;;;;;6196388;23;20016;-76
2023/01/26 00:06:55;;;;;;;60.20;17.67;;;;;;;;;;6146630;23;20035;-76
2023/01/26 00:09:21;;;;;;;67.70;18.83;;;;;;;;;;6171023;23;20111;-76
2023/01/26 00:11:47;;;;;;;59.53;17.52;;;;;;;;;;6196539;23;20078;-76
2023/01/26 00:14:13;;;;;;;63.75;18.13;;;;;;;;;;6223356;22;20512;-75
2023/01/26 00:16:39;;;;;;;72.00;20.77;;;;;;;;;;6224324;23;20058;-75
2023/01/26 00:19:06;;;;;;;63.42;19.77;;;;;;;;;;6173938;23;20020;-77
2023/01/26 00:21:32;;;;;;;67.60;19.05;;;;;;;;;;6172082;23;20016;-76
2023/01/26 00:23:58;;;;;;;60.13;17.90;;;;;;;;;;6173446;23;20952;-76
2023/01/26 00:26:25;;;;;;;59.45;17.60;;;;;;;;;;6198504;23;20012;-76
2023/01/26 00:28:52;;;;;;;59.35;17.88;;;;;;;;;;6176597;23;20080;-76
2023/01/26 00:31:19;;;;;;;43.65;14.48;;;;;;;;;;6181139;23;20512;-76
2023/01/26 00:33:45;;;;;;;57.00;16.55;;;;;;;;;;6186558;23;20022;-75
2023/01/26 00:36:12;;;;;;;51.72;15.75;;;;;;;;;;6242355;23;20012;-76
2023/01/26 00:38:38;;;;;;;51.00;16.58;;;;;;;;;;6211365;23;20012;-77
2023/01/26 00:41:05;;;;;;;54.65;17.35;;;;;;;;;;6220284;23;20382;-77
2023/01/26 00:43:31;;;;;;;55.65;16.67;;;;;;;;;;6199601;23;20068;-77
2023/01/26 00:45:57;;;;;;;63.22;16.88;;;;;;;;;;6179154;23;20529;-77
2023/01/26 00:48:23;;;;;;;56.30;16.17;;;;;;;;;;6197491;23;20016;-78
2023/01/26 00:50:50;;;;;;;58.83;17.75;;;;;;;;;;6173127;23;20074;-76
2023/01/26 00:53:16;;;;;;;64.50;18.15;;;;;;;;;;6172532;23;20019;-76
2023/01/26 00:55:42;;;;;;;66.80;18.67;;;;;;;;;;6196548;23;20050;-77
2023/01/26 00:58:09;;;;;;;47.13;13.95;;;;;;;;;;6195300;23;20068;-77
2023/01/26 01:00:36;;;;;;;62.92;18.38;;;;;;;;;;6170903;23;20458;-76
2023/01/26 01:03:02;;;;;;;74.47;18.17;;;;;;;;;;6170290;23;20113;-76
2023/01/26 01:05:29;;;;;;;66.88;18.85;;;;;;;;;;6194172;23;20012;-76
2023/01/26 01:07:56;;;;;;;67.25;18.80;;;;;;;;;;6170517;23;20020;-76
2023/01/26 01:10:22;;;;;;;53.40;15.13;;;;;;;;;;6194864;23;20160;-77
2023/01/26 01:12:48;;;;;;;55.17;15.20;;;;;;;;;;6221809;23;20051;-76
2023/01/26 01:15:14;;;;;;;91.85;19.95;;;;;;;;;;6195953;23;20094;-77
2023/01/26 01:17:41;;;;;;;59.78;15.43;;;;;;;;;;6194932;23;20820;-76
2023/01/26 01:20:08;;;;;;;81.45;20.10;;;;;;;;;;6168352;23;20012;-77
2023/01/26 01:22:34;;;;;;;74.65;18.13;;;;;;;;;;6195910;23;20069;-77
2023/01/26 01:25:00;;;;;;;85.53;19.27;;;;;;;;;;6195923;23;20012;-77
2023/01/26 01:27:26;;;;;;;60.60;15.18;;;;;;;;;;6194207;23;20054;-77
2023/01/26 01:29:54;;;;;;;79.60;18.08;;;;;;;;;;6144301;23;20097;-77
2023/01/26 01:32:20;;;;;;;88.15;20.00;;;;;;;;;;6224162;23;20114;-76
2023/01/26 01:34:46;;;;;;;75.70;20.08;;;;;;;;;;6194590;23;20023;-76
2023/01/26 01:37:13;;;;;;;85.40;19.85;;;;;;;;;;6170327;23;20020;-77
2023/01/26 01:39:39;;;;;;;81.93;17.95;;;;;;;;;;6193826;23;20016;-76
2023/01/26 01:42:05;;;;;;;75.47;17.17;;;;;;;;;;6195595;23;20226;-76
2023/01/26 01:44:35;;;;;;;83.32;19.52;;;;;;;;;;6194439;23;20020;-76
2023/01/26 01:47:16;;;;;;;70.55;17.50;;;;;;;;;;6195549;23;20019;-77
2023/01/26 01:49:45;;;;;;;76.07;17.90;;;;;;;;;;6195402;23;20686;-76
2023/01/26 01:52:19;;;;;;;85.25;19.90;;;;;;;;;;6224052;23;20461;-76
2023/01/26 01:54:47;;;;;;;;;;;;;;;;;;6172451;23;20773;-75
2023/01/26 01:57:16;;;;;;;60.10;15.95;;;;;;;;;;6170785;23;19915;-76
2023/01/26 01:59:49;;;;;;;53.53;13.55;;;;;;;;;;6196963;23;20016;-76
2023/01/26 02:02:15;;;;;;;65.38;17.45;;;;;;;;;;6196233;23;20525;-76
2023/01/26 02:04:42;;;;;;;96.93;19.38;;;;;;;;;;6170565;23;20016;-76
2023/01/26 02:07:10;;;;;;;82.80;19.98;;;;;;;;;;6171692;23;20020;-75
2023/01/26 02:12:26;;;;;;;70.97;17.05;;;;;;;;;;6196879;23;20119;-76
2023/01/26 02:14:52;;;;;;;60.33;15.43;;;;;;;;;;6173637;23;20054;-77
2023/01/26 02:17:18;;;;;;;73.70;18.65;;;;;;;;;;6226358;23;20509;-75
2023/01/26 02:19:56;;;;;;;89.95;20.73;;;;;;;;;;6226925;23;20105;-76
2023/01/26 02:22:37;;;;;;;87.25;21.27;;;;;;;;;;6233739;23;20288;-76
2023/01/26 02:25:06;;;;;;;79.18;18.90;;;;;;;;;;6244474;23;20059;-77
2023/01/26 02:27:32;;;;;;;79.00;19.98;;;;;;;;;;6214035;23;20020;-76
2023/01/26 02:29:59;;;;;;;94.10;20.98;;;;;;;;;;6220719;23;20099;-77
2023/01/26 02:32:27;;;;;;;93.80;22.58;;;;;;;;;;6197704;23;20015;-77
2023/01/26 02:34:56;;;;;;;82.95;20.33;;;;;;;;;;6218891;23;20081;-76
2023/01/26 02:37:23;;;;;;;98.80;20.50;;;;;;;;;;6196512;23;20085;-77
2023/01/26 02:39:55;;;;;;;96.30;21.38;;;;;;;;;;6196326;23;20051;-77
2023/01/26 02:42:40;;;;;;;104.57;21.23;;;;;;;;;;6222022;23;20045;-77
2023/01/26 02:45:07;;;;;;;72.15;19.30;;;;;;;;;;6222344;23;20738;-77
2023/01/26 02:47:33;;;;;;;78.95;18.00;;;;;;;;;;6145600;23;20077;-76
2023/01/26 02:50:00;;;;;;;74.38;18.05;;;;;;;;;;6169952;23;20075;-77
2023/01/26 02:52:26;;;;;;;67.20;16.73;;;;;;;;;;6192664;23;20481;-77
2023/01/26 02:57:38;;;;;;;90.60;20.50;;;;;;;;;;6194673;23;20123;-76
2023/01/26 03:00:06;;;;;;;79.20;17.65;;;;;;;;;;6195905;23;20048;-77
2023/01/26 03:02:32;;;;;;;82.93;20.23;;;;;;;;;;6194539;23;20016;-76
2023/01/26 03:04:58;;;;;;;79.57;17.77;;;;;;;;;;6145874;23;20016;-77
2023/01/26 03:07:25;;;;;;;89.85;20.98;;;;;;;;;;6222117;23;20051;-76
2023/01/26 03:09:51;;;;;;;72.15;18.50;;;;;;;;;;6220818;23;20661;-75
2023/01/26 03:12:17;;;;;;;85.72;21.38;;;;;;;;;;6192699;23;20482;-75
2023/01/26 03:14:43;;;;;;;111.88;22.30;;;;;;;;;;6169538;23;20048;-75
2023/01/26 03:17:09;;;;;;;90.93;18.83;;;;;;;;;;6169296;23;20016;-75
2023/01/26 03:27:50;;;;;;;77.95;18.50;;;;;;;;;;6235226;23;20024;-84
2023/01/26 03:30:17;;;;;;;73.53;17.42;;;;;;;;;;6208735;23;20024;-86
2023/01/26 03:32:43;;;;;;;101.90;20.58;;;;;;;;;;6181767;23;20339;-85
2023/01/26 03:35:14;;;;;;;94.07;20.27;;;;;;;;;;6207804;23;20020;-85
2023/01/26 03:37:42;;;;;;;101.32;21.35;;;;;;;;;;6181847;23;20016;-84
2023/01/26 03:56:39;;;;;;;94.15;19.20;;;;;;;;;;6210565;23;20032;-85
2023/01/26 03:59:07;;;;;;;109.65;21.17;;;;;;;;;;6215496;23;20023;-84
2023/01/26 04:01:33;;;;;;;119.47;22.35;;;;;;;;;;6195181;23;20023;-84
2023/01/26 04:09:31;;;;;;;106.60;19.00;;;;;;;;;;6225256;23;20027;-83
2023/01/26 04:11:58;;;;;;;183.60;24.92;;;;;;;;;;6220657;23;20026;-84
2023/01/26 04:22:42;;;;;;;132.93;23.27;;;;;;;;;;6211798;23;20016;-84
2023/01/26 04:25:08;;;;;;;124.78;22.48;;;;;;;;;;6228472;23;20049;-85
2023/01/26 04:27:36;;;;;;;132.20;23.98;;;;;;;;;;6225896;23;20023;-85
2023/01/26 04:30:03;;;;;;;112.75;21.98;;;;;;;;;;6183908;23;20027;-85
2023/01/26 04:32:30;;;;;;;107.80;20.70;;;;;;;;;;6208118;23;20024;-85
2023/01/26 04:34:56;;;;;;;125.18;23.45;;;;;;;;;;6183912;23;20526;-84
2023/01/26 04:37:22;;;;;;;135.13;24.20;;;;;;;;;;6183079;23;20442;-83
2023/01/26 04:39:48;;;;;;;139.32;25.05;;;;;;;;;;6232392;23;20030;-84
2023/01/26 04:42:14;;;;;;;114.15;23.40;;;;;;;;;;6179942;23;20077;-83
2023/01/26 04:44:40;;;;;;;138.80;24.35;;;;;;;;;;6207576;23;20039;-83
2023/01/26 04:47:07;;;;;;;122.95;23.65;;;;;;;;;;6181320;23;20015;-83
2023/01/26 04:49:33;;;;;;;128.77;24.95;;;;;;;;;;6206215;23;20100;-83
2023/01/26 04:51:59;;;;;;;159.32;27.13;;;;;;;;;;6157634;23;20115;-83
2023/01/26 04:54:28;;;;;;;139.50;25.27;;;;;;;;;;6233308;23;20008;-83
2023/01/26 04:56:54;;;;;;;153.52;25.05;;;;;;;;;;6233309;23;20046;-83
2023/01/26 04:59:20;;;;;;;117.10;24.17;;;;;;;;;;6206096;23;20350;-82
2023/01/26 05:01:46;;;;;;;146.02;27.15;;;;;;;;;;6183997;23;20022;-84
2023/01/26 05:04:13;;;;;;;138.73;26.02;;;;;;;;;;6211116;23;20087;-83
2023/01/26 05:06:40;;;;;;;130.82;26.52;;;;;;;;;;6208656;23;20513;-83
2023/01/26 05:09:07;;;;;;;161.10;27.58;;;;;;;;;;6182800;23;20031;-83
2023/01/26 05:11:33;;;;;;;176.63;28.20;;;;;;;;;;6186172;23;20019;-83
2023/01/26 05:13:59;;;;;;;141.73;25.77;;;;;;;;;;6186354;23;20024;-84
2023/01/26 05:16:25;;;;;;;142.95;26.25;;;;;;;;;;6238885;22;20016;-84
2023/01/26 05:18:51;;;;;;;157.52;27.08;;;;;;;;;;6238555;23;20024;-83
2023/01/26 05:21:17;;;;;;;185.25;29.33;;;;;;;;;;6240037;23;20051;-84
2023/01/26 05:23:43;;;;;;;159.02;27.20;;;;;;;;;;6188097;23;20019;-83
2023/01/26 05:26:10;;;;;;;136.32;26.08;;;;;;;;;;6213665;23;20024;-84
2023/01/26 05:28:41;;;;;;;148.65;27.80;;;;;;;;;;6241390;23;20016;-84
2023/01/26 05:31:07;;;;;;;127.75;29.13;;;;;;;;;;6212787;23;20028;-84
2023/01/26 05:33:33;;;;;;;169.95;28.27;;;;;;;;;;6213937;23;20024;-81
2023/01/26 05:36:03;;;;;;;129.00;25.92;;;;;;;;;;6190071;23;20027;-81
2023/01/26 05:38:29;;;;;;;144.15;28.73;;;;;;;;;;6242480;23;20038;-82
2023/01/26 05:40:55;;;;;;;185.43;28.10;;;;;;;;;;6197199;23;20012;-83
2023/01/26 05:43:21;;;;;;;138.63;27.02;;;;;;;;;;6222290;23;20012;-84
2023/01/26 05:45:47;;;;;;;154.18;27.23;;;;;;;;;;6201435;23;20009;-82
2023/01/26 05:48:15;;;;;;;131.63;26.15;;;;;;;;;;6198867;23;20084;-83
2023/01/26 05:50:41;;;;;;;135.77;25.92;;;;;;;;;;6175101;23;20023;-84
2023/01/26 05:53:07;;;;;;;163.70;28.40;;;;;;;;;;6226993;23;20012;-83
2023/01/26 05:55:33;;;;;;;178.10;27.85;;;;;;;;;;6225281;23;20015;-85
2023/01/26 05:57:59;;;;;;;121.75;23.63;;;;;;;;;;6224663;23;20030;-84
2023/01/26 06:00:25;;;;;;;112.80;24.98;;;;;;;;;;6199150;23;20016;-83
2023/01/26 06:02:51;;;;;;;93.28;20.70;;;;;;;;;;6197322;23;20095;-82
2023/01/26 06:05:17;;;;;;;75.97;16.60;;;;;;;;;;6228404;23;20454;-82
2023/01/26 06:07:44;;;;;;;66.07;12.60;;;;;;;;;;6234858;23;20052;-81
2023/01/26 06:10:10;;;;;;;66.45;9.40;;;;;;;;;;6213963;23;20024;-83
2023/01/26 06:12:37;;;;;;;54.60;7.25;;;;;;;;;;6239558;23;20056;-81
2023/01/26 06:15:04;;;;;;;56.80;6.70;;;;;;;;;;6221122;23;20520;-83
2023/01/26 06:17:30;;;;;;;59.55;7.13;;;;;;;;;;6216525;23;20078;-83
2023/01/26 06:19:56;;;;;;;67.88;7.20;;;;;;;;;;6242882;23;20012;-82
2023/01/26 06:22:22;;;;;;;55.15;6.75;;;;;;;;;;6190544;23;20080;-83
2023/01/26 06:24:48;;;;;;;53.15;7.25;;;;;;;;;;6215632;23;20008;-82
2023/01/26 06:27:16;;;;;;;55.05;6.30;;;;;;;;;;6214628;23;20020;-82
2023/01/26 06:29:47;;;;;;;48.47;5.53;;;;;;;;;;6216754;23;20461;-83
2023/01/26 06:32:14;;;;;;;64.60;7.13;;;;;;;;;;6189476;23;20008;-82
2023/01/26 06:34:40;;;;;;;59.97;6.78;;;;;;;;;;6212364;23;20105;-82
2023/01/26 06:37:06;;;;;;;63.42;6.65;;;;;;;;;;6212790;23;20020;-83
2023/01/26 06:39:32;;;;;;;65.57;8.23;;;;;;;;;;6211954;23;20070;-83
2023/01/26 06:41:58;;;;;;;59.22;7.05;;;;;;;;;;6210697;23;20020;-83
2023/01/26 06:44:25;;;;;;;73.35;7.10;;;;;;;;;;6211866;23;20016;-83
2023/01/26 06:46:51;;;;;;;61.15;8.45;;;;;;;;;;6209416;23;20012;-83
2023/01/26 06:49:17;;;;;;;57.42;7.03;;;;;;;;;;6185458;23;20518;-83
2023/01/26 06:51:43;;;;;;;63.40;6.45;;;;;;;;;;6211576;23;20031;-83
2023/01/26 06:54:10;;;;;;;65.13;6.78;;;;;;;;;;6240069;23;20023;-84
2023/01/26 06:56:36;;;;;;;68.28;6.68;;;;;;;;;;6188649;23;20446;-82
2023/01/26 06:59:03;;;;;;;56.20;6.10;;;;;;;;;;6187550;23;20083;-82
2023/01/26 07:01:30;;;;;;;65.97;7.35;;;;;;;;;;6187940;23;20354;-82
2023/01/26 07:03:56;;;;;;;55.97;7.60;;;;;;;;;;6240647;23;20024;-82
2023/01/26 07:06:22;;;;;;;66.20;6.60;;;;;;;;;;6212016;23;20013;-83
2023/01/26 07:08:48;;;;;;;57.40;6.57;;;;;;;;;;6240329;23;20473;-84
2023/01/26 07:11:15;;;;;;;46.72;5.53;;;;;;;;;;6213920;23;20012;-83
2023/01/26 07:13:41;;;;;;;70.35;6.70;;;;;;;;;;6240821;23;20027;-83
2023/01/26 07:16:10;;;;;;;50.08;7.30;;;;;;;;;;6192589;23;20065;-84
2023/01/26 07:18:36;;;;;;;51.53;6.55;;;;;;;;;;6248464;23;20419;-84
2023/01/26 07:21:03;;;;;;;56.03;6.03;;;;;;;;;;6221291;23;20023;-83
2023/01/26 07:23:29;;;;;;;55.65;6.80;;;;;;;;;;6221201;23;20458;-83
2023/01/26 07:25:56;;;;;;;56.53;5.60;;;;;;;;;;6195183;23;20012;-82
2023/01/26 07:28:22;;;;;;;53.55;5.78;;;;;;;;;;6168513;23;20458;-81
2023/01/26 07:30:51;;;;;;;48.88;6.10;;;;;;;;;;6219483;23;20481;-81
2023/01/26 07:33:18;;;;;;;65.63;6.10;;;;;;;;;;6165460;23;20709;-82
2023/01/26 07:35:44;;;;;;;53.67;7.32;;;;;;;;;;6188781;23;20020;-83
2023/01/26 07:38:10;;;;;;;53.78;5.70;;;;;;;;;;6189846;23;20020;-83
2023/01/26 07:40:36;;;;;;;57.05;6.47;;;;;;;;;;6192721;23;20035;-85
2023/01/26 07:43:02;;;;;;;47.70;6.93;;;;;;;;;;6203495;23;20020;-83
2023/01/26 07:45:28;;;;;;;56.90;7.65;;;;;;;;;;6264142;23;20011;-83
2023/01/26 07:47:55;;;;;;;57.75;6.25;;;;;;;;;;6209056;23;20039;-81
2023/01/26 07:50:22;;;;;;;48.92;4.00;;;;;;;;;;6209456;22;20060;-82
2023/01/26 07:52:48;;;;;;;44.15;5.40;;;;;;;;;;6200492;23;20054;-82
2023/01/26 07:55:15;;;;;;;50.53;4.57;;;;;;;;;;6188935;23;20447;-82
2023/01/26 07:57:41;;;;;;;51.13;6.80;;;;;;;;;;6188075;23;20016;-84
2023/01/26 08:00:07;;;;;;;49.00;4.47;;;;;;;;;;6186653;23;20935;-82
2023/01/26 08:02:33;;;;;;;54.20;5.50;;;;;;;;;;6212586;23;20020;-85
2023/01/26 08:05:01;;;;;;;45.28;4.45;;;;;;;;;;6213460;23;20016;-84
2023/01/26 08:07:27;;;;;;;56.45;5.70;;;;;;;;;;6188691;23;20096;-85
2023/01/26 08:09:53;;;;;;;52.63;5.05;;;;;;;;;;6163415;23;20073;-86
2023/01/26 08:12:20;;;;;;;57.75;5.15;;;;;;;;;;6162272;23;20016;-84
2023/01/26 08:14:46;;;;;;;35.13;5.55;;;;;;;;;;6211271;23;20035;-85
2023/01/26 08:17:12;;;;;;;41.90;3.80;;;;;;;;;;6187891;23;20008;-85
2023/01/26 08:19:38;;;;;;;55.17;5.93;;;;;;;;;;6161915;23;20054;-84
2023/01/26 08:22:04;;;;;;;38.38;4.85;;;;;;;;;;6186823;23;20399;-84
2023/01/26 08:24:30;;;;;;;45.38;4.60;;;;;;;;;;6185499;23;20019;-85
2023/01/26 08:26:56;;;;;;;49.70;4.80;;;;;;;;;;6211705;23;20012;-84
2023/01/26 08:29:25;;;;;;;46.35;4.60;;;;;;;;;;6238436;23;20016;-85
2023/01/26 08:31:52;;;;;;;51.53;4.88;;;;;;;;;;6186850;23;20027;-84
2023/01/26 08:34:21;;;;;;;49.83;4.90;;;;;;;;;;6186731;23;20023;-83
2023/01/26 08:36:47;;;;;;;48.67;4.78;;;;;;;;;;6210954;23;20016;-82
2023/01/26 08:39:13;;;;;;;35.92;4.53;;;;;;;;;;6212078;23;20028;-84
2023/01/26 08:41:40;;;;;;;47.97;4.55;;;;;;;;;;6186680;23;20067;-84
2023/01/26 08:44:06;;;;;;;40.97;5.60;;;;;;;;;;6187158;23;20020;-85
2023/01/26 08:46:32;;;;;;;43.17;5.32;;;;;;;;;;6189091;23;20062;-85
2023/01/26 08:48:58;;;;;;;37.30;4.50;;;;;;;;;;6193564;23;20012;-85
2023/01/26 08:51:25;;;;;;;52.67;5.22;;;;;;;;;;6219569;23;20016;-85
2023/01/26 08:53:53;;;;;;;57.20;7.13;;;;;;;;;;6244468;23;20023;-85
2023/01/26 08:56:19;;;;;;;43.78;5.75;;;;;;;;;;6192029;23;20023;-85
2023/01/26 08:58:46;;;;;;;37.92;5.28;;;;;;;;;;6190068;23;20051;-85
2023/01/26 09:01:14;;;;;;;47.90;4.97;;;;;;;;;;6213111;23;20718;-85
2023/01/26 09:03:41;;;;;;;33.58;5.35;;;;;;;;;;6213233;23;20016;-85
2023/01/26 09:06:09;;;;;;;45.13;5.32;;;;;;;;;;6212336;23;20012;-85
2023/01/26 09:08:35;;;;;;;39.20;6.43;;;;;;;;;;6187632;23;20534;-85
2023/01/26 09:11:02;;;;;;;39.80;6.45;;;;;;;;;;6186686;23;20026;-84
2023/01/26 09:13:28;;;;;;;70.15;6.05;;;;;;;;;;6238447;23;20522;-84
2023/01/26 09:15:54;;;;;;;34.75;5.25;;;;;;;;;;6238929;22;20163;-84
2023/01/26 09:18:20;;;;;;;33.30;4.63;;;;;;;;;;6169332;23;20450;-84
2023/01/26 09:20:46;;;;;;;29.50;4.18;;;;;;;;;;6220924;23;20054;-83
2023/01/26 09:23:16;;;;;;;30.17;4.28;;;;;;;;;;6195157;23;20035;-84
2023/01/26 09:25:42;;;;;;;36.78;3.92;;;;;;;;;;6231900;23;20040;-84
2023/01/26 09:28:08;;;;;;;33.83;4.13;;;;;;;;;;6244326;23;20020;-83
2023/01/26 09:30:35;;;;;;;40.28;5.32;;;;;;;;;;6201451;23;20035;-83
2023/01/26 09:33:02;;;;;;;39.75;5.75;;;;;;;;;;6235012;23;20068;-85
2023/01/26 09:35:29;;;;;;;32.03;4.07;;;;;;;;;;6234889;23;20007;-83
2023/01/26 09:37:55;;;;;;;38.78;5.10;;;;;;;;;;6220393;23;20066;-83
2023/01/26 09:40:41;;;;;;;24.20;3.85;;;;;;;;;;6185350;23;20009;-82
2023/01/26 09:43:17;;;;;;;30.70;5.00;;;;;;;;;;6137365;23;20023;-82
2023/01/26 09:45:53;;;;;;;25.70;3.17;;;;;;;;;;6186395;23;20095;-83
2023/01/26 09:48:31;;;;;;;29.42;5.20;;;;;;;;;;6212336;23;20042;-82
2023/01/26 09:51:02;;;;;;;34.60;5.03;;;;;;;;;;6238008;23;20016;-83
2023/01/26 09:53:31;;;;;;;25.90;4.03;;;;;;;;;;6212406;23;20080;-82
2023/01/26 09:55:57;;;;;;;26.30;4.93;;;;;;;;;;6237975;23;20496;-83
2023/01/26 09:58:49;;;;;;;22.55;3.28;;;;;;;;;;6209282;23;20016;-83
2023/01/26 10:01:26;;;;;;;36.13;5.57;;;;;;;;;;6200920;23;20555;-82
2023/01/26 10:04:00;;;;;;;31.38;5.78;;;;;;;;;;6237054;23;20062;-83
2023/01/26 10:06:28;;;;;;;35.33;4.55;;;;;;;;;;6234728;23;20019;-83
2023/01/26 10:08:55;;;;;;;31.23;4.65;;;;;;;;;;6208745;23;20016;-83
2023/01/26 10:11:26;;;;;;;32.15;4.85;;;;;;;;;;6209518;23;20027;-82
2023/01/26 10:13:55;;;;;;;30.33;5.57;;;;;;;;;;6181336;23;20031;-82
2023/01/26 10:16:23;;;;;;;26.67;3.78;;;;;;;;;;6234498;22;20020;-81
2023/01/26 10:18:53;;;;;;;31.90;4.47;;;;;;;;;;6184364;23;20312;-82
2023/01/26 10:21:22;;;;;;;24.25;3.75;;;;;;;;;;6237607;23;20013;-83
2023/01/26 10:23:48;;;;;;;40.97;5.40;;;;;;;;;;6243174;23;20012;-81
2023/01/26 10:26:16;;;;;;;29.85;3.40;;;;;;;;;;6187532;23;20012;-82
2023/01/26 10:28:43;;;;;;;22.70;3.28;;;;;;;;;;6187314;23;20104;-82
2023/01/26 10:31:17;;;;;;;28.83;3.85;;;;;;;;;;6210391;23;20102;-84
2023/01/26 10:33:48;;;;;;;27.75;5.43;;;;;;;;;;6211004;23;20023;-82
2023/01/26 10:36:14;;;;;;;31.05;3.67;;;;;;;;;;6210388;23;20155;-83
2023/01/26 10:38:41;;;;;;;30.02;3.45;;;;;;;;;;6185866;23;20350;-82
2023/01/26 10:41:17;;;;;;;28.48;3.50;;;;;;;;;;6208207;23;20020;-82
2023/01/26 10:43:55;;;;;;;36.17;5.55;;;;;;;;;;6184896;23;20106;-83
2023/01/26 10:46:26;;;;;;;25.23;3.47;;;;;;;;;;6208840;23;20475;-82
2023/01/26 10:48:53;;;;;;;24.70;4.20;;;;;;;;;;6210901;23;20130;-82
2023/01/26 10:51:24;;;;;;;34.25;4.68;;;;;;;;;;6237107;23;20452;-82
2023/01/26 10:53:50;;;;;;;25.15;3.90;;;;;;;;;;6181407;23;20028;-81
2023/01/26 10:56:16;;;;;;;33.03;4.18;;;;;;;;;;6206032;23;20016;-81
2023/01/26 10:58:56;;;;;;;20.23;4.63;;;;;;;;;;6155908;23;20020;-81
2023/01/26 11:01:26;;;;;;;20.58;3.45;;;;;;;;;;6208471;23;20480;-82
2023/01/26 11:03:58;;;;;;;21.40;2.80;;;;;;;;;;6213723;23;20043;-82
2023/01/26 11:06:27;;;;;;;24.40;3.58;;;;;;;;;;6235880;23;20008;-80
2023/01/26 11:08:53;;;;;;;25.20;3.85;;;;;;;;;;6239153;23;20034;-80
2023/01/26 11:11:26;;;;;;;26.98;3.63;;;;;;;;;;6207657;23;20075;-80
2023/01/26 11:14:12;;;;;;;26.15;3.22;;;;;;;;;;6230719;22;20192;-82
2023/01/26 11:16:40;;;;;;;16.33;3.03;;;;;;;;;;6208932;23;20013;-81
2023/01/26 11:19:25;;;;;;;15.02;3.85;;;;;;;;;;6202073;23;20020;-82
2023/01/26 11:21:56;;;;;;;29.35;4.90;;;;;;;;;;6203036;23;20104;-81
2023/01/26 11:24:22;;;;;;;28.52;4.05;;;;;;;;;;6206612;23;20023;-79
2023/01/26 11:27:06;;;;;;;25.73;3.53;;;;;;;;;;6181256;23;20034;-81
2023/01/26 11:29:33;;;;;;;10.43;2.42;;;;;;;;;;6249726;23;20030;-81
2023/01/26 11:32:01;;;;;;;19.30;3.22;;;;;;;;;;6255518;23;20012;-80
2023/01/26 11:34:37;;;;;;;28.83;3.50;;;;;;;;;;6204230;22;20012;-81
2023/01/26 11:37:06;;;;;;;25.75;3.20;;;;;;;;;;6209690;23;20020;-80
2023/01/26 11:39:35;;;;;;;21.95;3.10;;;;;;;;;;6206876;23;20020;-81
2023/01/26 11:42:16;;;;;;;16.98;3.38;;;;;;;;;;6180934;23;20035;-82
2023/01/26 11:44:50;;;;;;;15.93;3.00;;;;;;;;;;6209728;23;20490;-81
2023/01/26 11:47:19;;;;;;;15.40;2.92;;;;;;;;;;6185886;23;20134;-82
2023/01/26 11:50:00;;;;;;;18.08;3.25;;;;;;;;;;6211198;23;20016;-79
2023/01/26 11:52:50;;;;;;;18.88;3.42;;;;;;;;;;6212423;23;20016;-80
2023/01/26 11:55:22;;;;;;;22.60;3.05;;;;;;;;;;6125885;23;20894;-81
2023/01/26 11:57:54;;;;;;;24.27;3.63;;;;;;;;;;6213277;23;20032;-81
2023/01/26 12:00:27;;;;;;;16.35;2.75;;;;;;;;;;6210216;23;20020;-81
2023/01/26 12:03:13;;;;;;;21.73;2.97;;;;;;;;;;6210402;23;20024;-81
2023/01/26 12:05:48;;;;;;;18.50;3.58;;;;;;;;;;6160637;23;20130;-82
2023/01/26 12:08:17;;;;;;;20.88;3.10;;;;;;;;;;6238638;23;20023;-80
2023/01/26 12:10:51;;;;;;;14.30;3.20;;;;;;;;;;6237657;23;20263;-80
2023/01/26 12:13:37;;;;;;;13.93;2.20;;;;;;;;;;6210763;23;20513;-81
2023/01/26 12:16:11;;;;;;;11.75;2.00;;;;;;;;;;6185702;23;20019;-80
2023/01/26 12:18:41;;;;;;;16.52;2.28;;;;;;;;;;6209958;23;20066;-80
2023/01/26 12:21:11;;;;;;;17.17;2.47;;;;;;;;;;6185001;23;20018;-81
2023/01/26 12:24:03;;;;;;;10.93;2.15;;;;;;;;;;6186624;23;20016;-80
2023/01/26 12:26:35;;;;;;;17.05;2.28;;;;;;;;;;6210044;23;20488;-80
2023/01/26 12:29:07;;;;;;;12.23;2.30;;;;;;;;;;6185112;23;20065;-80
2023/01/26 12:31:35;;;;;;;15.55;2.30;;;;;;;;;;6211577;23;20026;-80
2023/01/26 12:34:01;;;;;;;18.10;2.58;;;;;;;;;;6210420;23;20372;-80
2023/01/26 12:36:42;;;;;;;16.45;2.20;;;;;;;;;;6186196;23;20020;-80
2023/01/26 12:39:09;;;;;;;21.98;3.35;;;;;;;;;;6211215;23;20016;-80
2023/01/26 12:41:39;;;;;;;13.75;2.20;;;;;;;;;;6210803;23;20023;-80
2023/01/26 12:44:08;;;;;;;16.73;1.95;;;;;;;;;;6212497;23;20012;-80
2023/01/26 12:46:36;;;;;;;18.75;2.85;;;;;;;;;;6213512;23;20027;-80
2023/01/26 12:49:09;;;;;;;15.27;2.55;;;;;;;;;;6220135;23;20030;-80
2023/01/26 12:51:41;;;;;;;19.40;2.88;;;;;;;;;;6252062;23;20016;-80
2023/01/26 12:54:36;;;;;;;14.55;2.72;;;;;;;;;;6203839;23;20016;-81
2023/01/26 12:57:05;;;;;;;17.95;2.13;;;;;;;;;;6220001;23;20047;-80
2023/01/26 12:59:33;;;;;;;23.20;2.85;;;;;;;;;;6226423;23;20071;-80
2023/01/26 13:02:00;;;;;;;16.08;2.25;;;;;;;;;;6199493;23;20326;-80
2023/01/26 13:04:26;;;;;;;14.98;2.40;;;;;;;;;;6221504;23;20016;-80
2023/01/26 13:07:03;;;;;;;12.98;1.80;;;;;;;;;;6239634;23;20016;-80
2023/01/26 13:09:29;;;;;;;15.07;2.38;;;;;;;;;;6209610;23;20074;-76
2023/01/26 13:11:59;;;;;;;16.23;1.90;;;;;;;;;;6210005;23;20102;-75
2023/01/26 13:14:25;;;;;;;14.93;2.17;;;;;;;;;;6210898;22;20024;-75
2023/01/26 13:16:51;;;;;;;13.15;2.55;;;;;;;;;;6209681;23;20020;-75
2023/01/26 13:19:36;;;;;;;8.13;1.83;;;;;;;;;;6163745;23;20023;-74
2023/01/26 13:22:02;;;;;;;12.57;2.10;;;;;;;;;;6214567;23;20015;-74
2023/01/26 13:24:28;;;;;;;17.23;3.22;;;;;;;;;;6217587;23;20109;-75
2023/01/26 13:26:59;;;;;;;20.02;2.60;;;;;;;;;;6191173;23;20639;-75
2023/01/26 13:29:26;;;;;;;10.13;2.35;;;;;;;;;;6217259;23;20078;-75
2023/01/26 13:31:53;;;;;;;15.45;2.28;;;;;;;;;;6217330;23;20035;-74
2023/01/26 13:34:21;;;;;;;21.05;4.00;;;;;;;;;;6214397;23;20031;-74
2023/01/26 13:36:48;;;;;;;14.70;2.28;;;;;;;;;;6216663;23;20042;-75
2023/01/26 13:39:20;;;;;;;18.85;2.30;;;;;;;;;;6193930;23;20086;-75
2023/01/26 13:41:46;;;;;;;25.23;2.53;;;;;;;;;;6216909;23;20012;-76
2023/01/26 13:44:16;;;;;;;19.33;3.15;;;;;;;;;;6187035;23;20015;-75
2023/01/26 13:46:42;;;;;;;19.02;2.90;;;;;;;;;;6185591;23;20016;-75
2023/01/26 13:49:28;;;;;;;19.92;2.70;;;;;;;;;;6182627;23;20024;-75
2023/01/26 13:51:54;;;;;;;21.88;2.45;;;;;;;;;;6181855;23;20148;-75
2023/01/26 13:54:21;;;;;;;27.17;10.27;;;;;;;;;;6206873;23;20107;-75
2023/01/26 13:57:02;;;;;;;20.67;2.67;;;;;;;;;;6206536;23;20339;-76
2023/01/26 13:59:28;;;;;;;22.13;3.35;;;;;;;;;;6206248;23;20039;-75
2023/01/26 14:01:55;;;;;;;19.85;3.85;;;;;;;;;;6181451;23;20016;-74
2023/01/26 14:04:22;;;;;;;17.52;3.10;;;;;;;;;;6206548;23;20019;-75
2023/01/26 14:07:08;;;;;;;16.50;1.63;;;;;;;;;;6204757;23;20015;-75
2023/01/26 14:09:42;;;;;;;16.38;3.10;;;;;;;;;;6204103;23;20360;-76
2023/01/26 14:12:16;;;;;;;16.52;2.75;;;;;;;;;;6205857;23;20090;-75
2023/01/26 14:14:46;;;;;;;23.10;3.22;;;;;;;;;;6180795;23;20107;-76
2023/01/26 14:17:27;;;;;;;17.83;2.78;;;;;;;;;;6233184;23;20016;-76
2023/01/26 14:19:54;;;;;;;20.10;2.88;;;;;;;;;;6206650;23;20052;-76
2023/01/26 14:22:20;;;;;;;18.67;2.70;;;;;;;;;;6233634;23;20012;-76
2023/01/26 14:24:48;;;;;;;23.08;2.47;;;;;;;;;;6206726;23;20019;-76
2023/01/26 14:27:32;;;;;;;23.52;2.70;;;;;;;;;;6181981;23;20031;-75
2023/01/26 14:29:58;;;;;;;17.88;3.67;;;;;;;;;;6205974;23;20050;-75
2023/01/26 14:32:28;;;;;;;24.35;2.80;;;;;;;;;;6207700;23;20027;-75
2023/01/26 14:34:58;;;;;;;15.63;2.42;;;;;;;;;;6191055;23;20378;-75
2023/01/26 14:37:24;;;;;;;16.05;2.78;;;;;;;;;;6217486;23;20016;-75
2023/01/26 14:40:10;;;;;;;13.70;2.47;;;;;;;;;;6220838;23;20000;-75
2023/01/26 14:42:36;;;;;;;23.63;2.67;;;;;;;;;;6233292;23;20000;-75
2023/01/26 14:45:04;;;;;;;21.95;2.67;;;;;;;;;;6232906;23;20091;-75
2023/01/26 14:47:37;;;;;;;15.85;3.53;;;;;;;;;;6233220;23;20048;-75
2023/01/26 14:50:05;;;;;;;14.38;2.60;;;;;;;;;;6206818;23;20099;-76
2023/01/26 14:52:33;;;;;;;14.38;2.35;;;;;;;;;;6181446;23;20027;-75
2023/01/26 14:55:05;;;;;;;16.50;2.83;;;;;;;;;;6207173;23;20118;-75
2023/01/26 14:57:31;;;;;;;17.88;2.90;;;;;;;;;;6206232;23;20020;-75
2023/01/26 14:59:58;;;;;;;14.18;2.35;;;;;;;;;;6173931;23;20055;-74
2023/01/26 15:02:26;;;;;;;21.10;2.58;;;;;;;;;;6226357;23;20027;-74
2023/01/26 15:04:52;;;;;;;22.60;3.03;;;;;;;;;;6175558;23;20130;-74
2023/01/26 15:07:37;;;;;;;20.60;3.00;;;;;;;;;;6197078;23;20304;-73
2023/01/26 15:10:24;;;;;;;19.55;2.33;;;;;;;;;;6223560;23;20015;-73
2023/01/26 15:13:00;;;;;;;23.80;3.63;;;;;;;;;;6225899;23;20039;-74
2023/01/26 15:15:27;;;;;;;31.30;3.78;;;;;;;;;;6200870;23;20476;-75
2023/01/26 15:18:01;;;;;;;18.27;2.47;;;;;;;;;;6174981;23;20020;-74